createdAt,value
2022-12-20T00:01:27.809Z,6.83
2022-12-20T00:03:55.953Z,7.40
2022-12-20T00:06:24.106Z,7.30
2022-12-20T00:08:59.940Z,6.87
2022-12-20T00:11:27.586Z,6.53
2022-12-20T00:13:54.406Z,7.00
2022-12-20T00:16:23.495Z,7.20
2022-12-20T00:18:58.625Z,6.70
2022-12-20T00:21:25.416Z,7.03
2022-12-20T00:23:53.489Z,6.50
2022-12-20T00:26:23.142Z,6.77
2022-12-20T00:28:49.761Z,6.90
2022-12-20T00:31:18.755Z,6.50
2022-12-20T00:33:47.143Z,6.30
2022-12-20T00:36:14.408Z,6.60
2022-12-20T00:38:41.512Z,6.93
2022-12-20T00:41:14.009Z,6.47
2022-12-20T00:43:41.515Z,6.70
2022-12-20T00:46:11.286Z,6.50
2022-12-20T00:48:38.257Z,6.27
2022-12-20T00:51:11.021Z,7.50
2022-12-20T00:53:39.360Z,7.13
2022-12-20T00:56:07.171Z,6.60
2022-12-20T00:58:39.048Z,6.50
2022-12-20T01:01:07.701Z,6.73
2022-12-20T01:03:34.533Z,6.87
2022-12-20T01:06:02.907Z,6.97
2022-12-20T01:08:31.513Z,7.20
2022-12-20T01:11:23.246Z,6.80
2022-12-20T01:13:52.637Z,6.73
2022-12-20T01:16:24.165Z,7.27
2022-12-20T01:18:54.504Z,6.73
2022-12-20T01:21:26.398Z,7.10
2022-12-20T01:23:53.951Z,6.63
2022-12-20T01:26:22.834Z,7.20
2022-12-20T01:28:54.349Z,7.20
2022-12-20T01:31:21.621Z,7.20
2022-12-20T01:33:50.569Z,7.10
2022-12-20T01:36:29.283Z,6.60
2022-12-20T01:39:05.127Z,7.37
2022-12-20T01:41:33.536Z,6.40
2022-12-20T01:44:21.993Z,6.60
2022-12-20T01:46:50.142Z,6.97
2022-12-20T01:49:21.604Z,6.63
2022-12-20T01:51:53.856Z,9.23
2022-12-20T01:54:28.221Z,5.80
2022-12-20T01:56:59.824Z,6.47
2022-12-20T01:59:28.357Z,6.97
2022-12-20T02:02:01.818Z,6.47
2022-12-20T02:04:28.727Z,6.60
2022-12-20T02:06:55.433Z,6.60
2022-12-20T02:09:23.747Z,6.00
2022-12-20T02:12:12.852Z,6.30
2022-12-20T02:14:59.211Z,6.07
2022-12-20T02:17:36.239Z,6.10
2022-12-20T02:20:28.061Z,5.80
2022-12-20T02:23:32.984Z,5.90
2022-12-20T02:26:52.165Z,5.87
2022-12-20T02:29:36.793Z,6.53
2022-12-20T02:32:22.235Z,5.67
2022-12-20T02:34:50.948Z,5.90
2022-12-20T02:37:17.858Z,6.13
2022-12-20T02:39:46.387Z,6.17
2022-12-20T02:42:18.362Z,5.63
2022-12-20T02:45:11.211Z,5.50
2022-12-20T02:47:42.474Z,5.80
2022-12-20T02:50:11.337Z,6.03
2022-12-20T02:52:40.316Z,5.63
2022-12-20T02:55:09.387Z,5.80
2022-12-20T02:57:59.908Z,5.53
2022-12-20T03:00:30.999Z,5.70
2022-12-20T03:03:17.652Z,5.10
2022-12-20T03:05:49.746Z,4.93
2022-12-20T03:08:19.462Z,5.27
2022-12-20T03:10:46.568Z,4.97
2022-12-20T03:13:19.922Z,4.93
2022-12-20T03:15:51.677Z,5.17
2022-12-20T03:18:18.565Z,4.63
2022-12-20T03:20:45.259Z,5.07
2022-12-20T03:23:11.973Z,5.20
2022-12-20T03:25:39.161Z,5.17
2022-12-20T03:28:06.591Z,5.43
2022-12-20T03:30:33.475Z,5.33
2022-12-20T03:33:00.155Z,5.17
2022-12-20T03:35:26.806Z,5.50
2022-12-20T03:37:53.591Z,5.40
2022-12-20T03:40:20.257Z,5.13
2022-12-20T03:42:46.976Z,5.23
2022-12-20T03:45:13.720Z,5.40
2022-12-20T03:47:40.394Z,4.90
2022-12-20T03:50:08.037Z,4.97
2022-12-20T03:52:35.879Z,4.70
2022-12-20T03:55:03.598Z,5.43
2022-12-20T03:57:37.501Z,4.70
2022-12-20T04:00:07.884Z,4.90
2022-12-20T04:02:41.394Z,5.13
2022-12-20T04:05:10.567Z,5.00
2022-12-20T04:07:38.314Z,5.10
2022-12-20T04:10:05.986Z,5.00
2022-12-20T04:12:32.943Z,5.07
2022-12-20T04:15:00.380Z,4.60
2022-12-20T04:17:28.232Z,4.67
2022-12-20T04:19:55.591Z,4.93
2022-12-20T04:22:23.030Z,4.83
2022-12-20T04:24:56.301Z,5.37
2022-12-20T04:27:25.709Z,4.97
2022-12-20T04:29:54.640Z,5.23
2022-12-20T04:32:22.202Z,5.23
2022-12-20T04:34:49.561Z,5.23
2022-12-20T04:37:16.906Z,5.53
2022-12-20T04:39:51.361Z,5.67
2022-12-20T04:42:29.412Z,6.30
2022-12-20T04:44:56.777Z,5.47
2022-12-20T04:47:27.123Z,5.83
2022-12-20T04:49:55.131Z,5.50
2022-12-20T04:52:47.105Z,6.27
2022-12-20T04:55:14.456Z,5.53
2022-12-20T04:57:41.121Z,5.80
2022-12-20T05:00:08.636Z,5.70
2022-12-20T05:02:38.477Z,6.47
2022-12-20T05:05:09.969Z,6.40
2022-12-20T05:07:42.586Z,5.93
2022-12-20T05:10:10.435Z,5.43
2022-12-20T05:12:38.439Z,6.20
2022-12-20T05:15:07.438Z,5.73
2022-12-20T05:17:34.408Z,5.53
2022-12-20T05:20:01.432Z,6.37
2022-12-20T05:22:49.273Z,6.17
2022-12-20T05:25:35.081Z,6.60
2022-12-20T05:28:05.621Z,6.23
2022-12-20T05:30:35.542Z,5.73
2022-12-20T05:33:02.568Z,6.43
2022-12-20T05:35:30.718Z,6.17
2022-12-20T05:38:04.000Z,6.60
2022-12-20T05:40:31.595Z,7.70
2022-12-20T05:42:58.950Z,6.57
2022-12-20T05:45:35.322Z,7.00
2022-12-20T05:48:06.943Z,6.53
2022-12-20T05:50:37.615Z,6.50
2022-12-20T05:53:23.202Z,6.40
2022-12-20T05:55:54.434Z,6.97
2022-12-20T05:58:25.958Z,6.50
2022-12-20T06:00:59.974Z,6.70
2022-12-20T06:03:27.186Z,6.50
2022-12-20T06:05:54.911Z,6.90
2022-12-20T06:08:27.186Z,6.47
2022-12-20T06:10:55.738Z,6.90
2022-12-20T06:13:23.645Z,6.70
2022-12-20T06:15:53.671Z,6.63
2022-12-20T06:18:21.213Z,6.20
2022-12-20T06:20:52.384Z,6.13
2022-12-20T06:23:22.406Z,6.37
2022-12-20T06:25:58.831Z,6.57
2022-12-20T06:28:30.001Z,6.07
2022-12-20T06:30:58.246Z,6.27
2022-12-20T06:33:36.408Z,6.33
2022-12-20T06:36:04.143Z,5.90
2022-12-20T06:38:30.759Z,6.27
2022-12-20T06:40:57.358Z,5.73
2022-12-20T06:43:24.341Z,6.80
2022-12-20T06:45:51.032Z,6.60
2022-12-20T06:48:17.749Z,6.70
2022-12-20T06:50:44.451Z,6.93
2022-12-20T06:53:11.243Z,7.27
2022-12-20T06:55:39.379Z,6.80
2022-12-20T06:58:06.072Z,7.33
2022-12-20T07:00:34.754Z,6.60
2022-12-20T07:03:01.568Z,7.20
2022-12-20T07:05:28.384Z,6.67
2022-12-20T07:07:55.026Z,7.17
2022-12-20T07:10:21.636Z,7.00
2022-12-20T07:12:48.748Z,6.67
2022-12-20T07:15:16.010Z,8.10
2022-12-20T07:17:42.679Z,7.40
2022-12-20T07:20:13.669Z,7.67
2022-12-20T07:22:40.967Z,7.20
2022-12-20T07:25:07.847Z,7.77
2022-12-20T07:27:34.455Z,7.70
2022-12-20T07:30:01.093Z,7.33
2022-12-20T07:32:27.907Z,7.33
2022-12-20T07:34:54.515Z,7.23
2022-12-20T07:37:21.181Z,7.43
2022-12-20T07:39:47.785Z,8.53
2022-12-20T07:42:14.713Z,8.40
2022-12-20T07:44:43.603Z,7.83
2022-12-20T07:47:10.417Z,7.63
2022-12-20T07:49:37.400Z,8.23
2022-12-20T07:52:05.776Z,9.03
2022-12-20T07:54:37.904Z,8.57
2022-12-20T07:57:11.818Z,8.67
2022-12-20T07:59:41.795Z,8.13
2022-12-20T08:02:14.343Z,8.97
2022-12-20T08:04:41.734Z,8.50
2022-12-20T08:07:09.794Z,8.47
2022-12-20T08:09:39.978Z,8.40
2022-12-20T08:12:10.399Z,8.50
2022-12-20T08:14:38.027Z,8.23
2022-12-20T08:17:04.870Z,8.73
2022-12-20T08:19:32.841Z,8.87
2022-12-20T08:21:59.767Z,8.93
2022-12-20T08:24:26.534Z,8.53
2022-12-20T08:26:53.209Z,8.17
2022-12-20T08:29:19.842Z,7.97
2022-12-20T08:31:50.423Z,7.90
2022-12-20T08:34:17.885Z,8.03
2022-12-20T08:36:44.613Z,8.17
2022-12-20T08:39:11.432Z,8.50
2022-12-20T08:41:38.423Z,11.57
2022-12-20T08:44:06.016Z,8.60
2022-12-20T08:46:33.122Z,8.70
2022-12-20T08:48:59.899Z,8.60
2022-12-20T08:51:27.180Z,8.57
2022-12-20T08:53:53.937Z,8.80
2022-12-20T08:56:21.218Z,7.90
2022-12-20T08:58:48.114Z,8.57
2022-12-20T09:01:17.632Z,8.33
2022-12-20T09:03:45.078Z,8.27
2022-12-20T09:06:17.751Z,7.93
2022-12-20T09:08:44.505Z,7.90
2022-12-20T09:11:17.682Z,8.33
2022-12-20T09:13:46.437Z,8.40
2022-12-20T09:16:15.334Z,8.13
2022-12-20T09:18:52.411Z,8.30
2022-12-20T09:21:20.460Z,8.43
2022-12-20T09:23:48.315Z,8.53
2022-12-20T09:26:16.513Z,8.53
2022-12-20T09:28:44.584Z,8.37
2022-12-20T09:31:20.126Z,7.87
2022-12-20T09:33:47.265Z,8.60
2022-12-20T09:36:17.394Z,8.63
2022-12-20T09:38:44.838Z,8.27
2022-12-20T09:41:26.557Z,8.30
2022-12-20T09:43:53.789Z,7.90
2022-12-20T09:46:21.214Z,8.07
2022-12-20T09:48:48.315Z,8.47
2022-12-20T09:51:34.843Z,8.53
2022-12-20T09:54:19.615Z,8.10
2022-12-20T09:57:14.543Z,8.13
2022-12-20T09:59:49.211Z,8.23
2022-12-20T10:05:41.859Z,7.67
2022-12-20T10:08:43.915Z,6.60
2022-12-20T10:11:42.046Z,7.33
2022-12-20T10:14:50.391Z,6.70
2022-12-20T10:17:45.502Z,7.37
2022-12-20T10:20:30.702Z,7.53
2022-12-20T10:23:04.566Z,7.37
2022-12-20T10:25:33.748Z,7.60
2022-12-20T10:28:04.913Z,8.13
2022-12-20T10:30:35.426Z,7.60
2022-12-20T10:33:02.734Z,7.97
2022-12-20T10:35:40.870Z,7.70
2022-12-20T10:38:13.796Z,8.60
2022-12-20T10:41:19.434Z,7.43
2022-12-20T10:43:44.119Z,7.40
2022-12-20T10:46:12.167Z,7.80
2022-12-20T10:48:41.635Z,7.40
2022-12-20T10:51:16.549Z,7.97
2022-12-20T10:53:52.217Z,7.13
2022-12-20T10:56:36.259Z,7.17
2022-12-20T10:59:18.107Z,7.00
2022-12-20T11:01:46.944Z,7.30
2022-12-20T11:04:30.674Z,7.17
2022-12-20T11:06:59.296Z,6.90
2022-12-20T11:09:35.891Z,8.30
2022-12-20T11:12:07.055Z,35.77
2022-12-20T11:14:39.343Z,7.40
2022-12-20T11:17:34.711Z,7.67
2022-12-20T11:20:11.633Z,6.83
2022-12-20T11:23:07.326Z,7.10
2022-12-20T11:25:58.722Z,6.67
2022-12-20T11:28:25.329Z,7.10
2022-12-20T11:31:13.060Z,7.27
2022-12-20T11:34:08.630Z,6.83
2022-12-20T11:36:38.033Z,7.23
2022-12-20T11:39:30.050Z,7.00
2022-12-20T11:42:14.644Z,7.17
2022-12-20T11:45:09.651Z,7.13
2022-12-20T11:47:39.500Z,7.20
2022-12-20T11:50:25.915Z,6.57
2022-12-20T11:52:59.169Z,6.33
2022-12-20T11:55:33.721Z,6.53
2022-12-20T11:58:21.100Z,5.53
2022-12-20T12:01:16.686Z,6.93
2022-12-20T12:04:04.401Z,6.27
2022-12-20T12:06:37.701Z,5.80
2022-12-20T12:09:22.675Z,6.63
2022-12-20T12:12:12.176Z,6.13
2022-12-20T12:14:56.174Z,6.20
2022-12-20T12:17:41.757Z,5.30
2022-12-20T12:20:48.569Z,5.40
2022-12-20T12:23:40.050Z,5.70
2022-12-20T12:26:15.974Z,5.13
2022-12-20T12:28:42.652Z,5.77
2022-12-20T12:31:18.343Z,5.13
2022-12-20T12:34:07.677Z,5.20
2022-12-20T12:36:45.832Z,4.50
2022-12-20T12:39:33.859Z,4.77
2022-12-20T12:42:30.275Z,5.43
2022-12-20T12:45:22.518Z,7.37
2022-12-20T12:48:00.812Z,4.63
2022-12-20T12:50:36.768Z,5.90
2022-12-20T12:53:18.229Z,4.87
2022-12-20T12:55:58.063Z,4.80
2022-12-20T12:58:35.170Z,5.37
2022-12-20T13:01:12.426Z,5.47
2022-12-20T13:03:39.647Z,5.53
2022-12-20T13:06:30.698Z,5.67
2022-12-20T13:09:00.202Z,5.50
2022-12-20T13:11:36.349Z,5.93
2022-12-20T13:14:32.135Z,5.90
2022-12-20T13:17:14.363Z,5.77
2022-12-20T13:19:54.871Z,6.40
2022-12-20T13:22:23.590Z,5.37
2022-12-20T13:25:28.210Z,6.33
2022-12-20T13:28:24.008Z,5.80
2022-12-20T13:30:53.840Z,5.90
2022-12-20T13:33:30.718Z,6.47
2022-12-20T13:35:59.068Z,6.40
2022-12-20T13:38:54.006Z,6.27
2022-12-20T13:41:40.853Z,6.50
2022-12-20T13:44:21.445Z,5.93
2022-12-20T13:46:58.314Z,6.70
2022-12-20T13:49:28.654Z,6.00
2022-12-20T13:52:16.877Z,6.67
2022-12-20T13:54:46.647Z,6.73
2022-12-20T13:57:17.821Z,6.27
2022-12-20T13:59:49.670Z,6.37
2022-12-20T14:02:24.828Z,6.33
2022-12-20T14:05:31.670Z,6.23
2022-12-20T14:08:03.003Z,7.00
2022-12-20T14:10:34.753Z,6.50
2022-12-20T14:13:01.745Z,6.30
2022-12-20T14:15:33.614Z,6.17
2022-12-20T14:18:19.857Z,6.30
2022-12-20T14:20:53.004Z,6.70
2022-12-20T14:23:35.422Z,6.23
2022-12-20T14:26:02.738Z,6.53
2022-12-20T14:28:38.425Z,6.13
2022-12-20T14:31:06.746Z,6.93
2022-12-20T14:33:41.886Z,6.63
2022-12-20T14:36:18.959Z,6.57
2022-12-20T14:38:48.193Z,6.53
2022-12-20T14:41:38.905Z,6.30
2022-12-20T14:44:08.226Z,6.43
2022-12-20T14:46:36.910Z,6.10
2022-12-20T14:49:21.095Z,6.70
2022-12-20T14:51:48.659Z,5.90
2022-12-20T14:55:05.460Z,6.43
2022-12-20T14:57:35.149Z,6.93
2022-12-20T15:00:14.018Z,6.77
2022-12-20T15:02:45.246Z,7.00
2022-12-20T15:05:38.626Z,6.80
2022-12-20T15:08:14.090Z,6.30
2022-12-20T15:10:55.186Z,6.20
2022-12-20T15:13:35.314Z,6.90
2022-12-20T15:16:06.046Z,6.40
2022-12-20T15:18:32.823Z,6.57
2022-12-20T15:21:06.827Z,6.33
2022-12-20T15:23:34.363Z,6.60
2022-12-20T15:26:01.217Z,6.60
2022-12-20T15:28:27.918Z,6.87
2022-12-20T15:30:55.574Z,6.70
2022-12-20T15:33:28.946Z,7.07
2022-12-20T15:35:56.396Z,7.00
2022-12-20T15:38:47.722Z,7.03
2022-12-20T15:41:25.513Z,5.83
2022-12-20T15:43:56.242Z,6.53
2022-12-20T15:46:23.201Z,6.20
2022-12-20T15:48:50.033Z,6.63
2022-12-20T15:51:27.928Z,6.33
2022-12-20T15:53:55.021Z,6.43
2022-12-20T15:56:23.752Z,5.80
2022-12-20T15:58:52.543Z,6.37
2022-12-20T16:01:24.152Z,6.30
2022-12-20T16:03:57.425Z,6.70
2022-12-20T16:06:24.110Z,6.60
2022-12-20T16:08:50.737Z,6.77
2022-12-20T16:11:22.087Z,6.27
2022-12-20T16:13:48.965Z,6.03
2022-12-20T16:16:20.645Z,6.23
2022-12-20T16:18:47.466Z,5.63
2022-12-20T16:21:21.807Z,5.80
2022-12-20T16:23:50.649Z,6.57
2022-12-20T16:26:19.862Z,7.40
2022-12-20T16:28:47.937Z,6.60
2022-12-20T16:31:32.776Z,6.43
2022-12-20T16:34:04.933Z,6.27
2022-12-20T16:36:32.700Z,6.33
2022-12-20T16:38:59.752Z,6.53
2022-12-20T16:41:28.569Z,12.77
2022-12-20T16:43:57.355Z,6.70
2022-12-20T16:46:27.190Z,7.50
2022-12-20T16:48:56.756Z,6.60
2022-12-20T16:51:34.953Z,7.10
2022-12-20T16:54:19.533Z,9.47
2022-12-20T16:56:48.337Z,6.97
2022-12-20T16:59:23.118Z,6.97
2022-12-20T17:01:52.941Z,7.03
2022-12-20T17:04:21.099Z,7.33
2022-12-20T17:06:47.929Z,7.13
2022-12-20T17:12:00.246Z,7.13
2022-12-20T17:14:26.958Z,6.80
2022-12-20T17:16:53.615Z,8.07
2022-12-20T17:19:20.398Z,7.93
2022-12-20T17:24:33.386Z,6.57
2022-12-20T17:27:00.311Z,6.70
2022-12-20T17:29:27.194Z,10.03
2022-12-20T17:31:53.955Z,8.40
2022-12-20T17:34:20.660Z,7.80
2022-12-20T17:36:49.155Z,6.43
2022-12-20T17:39:16.462Z,6.13
2022-12-20T17:41:44.197Z,7.30
2022-12-20T17:44:26.463Z,7.20
2022-12-20T17:46:54.396Z,6.77
2022-12-20T17:49:22.967Z,7.60
2022-12-20T17:51:51.374Z,7.07
2022-12-20T17:54:20.692Z,7.20
2022-12-20T17:56:47.793Z,8.07
2022-12-20T17:59:14.714Z,7.27
2022-12-20T18:01:42.972Z,6.83
2022-12-20T18:04:13.311Z,6.77
2022-12-20T18:06:42.361Z,6.77
2022-12-20T18:09:17.397Z,6.90
2022-12-20T18:11:44.569Z,7.57
2022-12-20T18:14:11.906Z,7.70
2022-12-20T18:16:39.579Z,7.13
2022-12-20T18:19:07.764Z,7.10
2022-12-20T18:21:34.813Z,7.23
2022-12-20T18:24:01.456Z,7.50
2022-12-20T18:26:32.325Z,7.43
2022-12-20T18:29:01.128Z,7.73
2022-12-20T18:31:30.971Z,8.00
2022-12-20T18:33:58.834Z,7.97
2022-12-20T18:36:31.459Z,8.37
2022-12-20T18:39:00.295Z,7.97
2022-12-20T18:41:29.031Z,7.60
2022-12-20T18:44:06.933Z,7.57
2022-12-20T18:46:34.510Z,7.90
2022-12-20T18:49:01.632Z,7.33
2022-12-20T18:51:32.697Z,7.27
2022-12-20T18:54:00.125Z,7.77
2022-12-20T18:56:30.704Z,7.37
2022-12-20T18:59:03.002Z,7.80
2022-12-20T19:01:35.484Z,7.83
2022-12-20T19:04:04.266Z,8.47
2022-12-20T19:06:31.881Z,8.53
2022-12-20T19:09:00.480Z,8.17
2022-12-20T19:11:27.120Z,8.70
2022-12-20T19:13:53.767Z,9.23
2022-12-20T19:16:27.171Z,9.47
2022-12-20T19:18:54.096Z,9.20
2022-12-20T19:21:24.087Z,9.10
2022-12-20T19:23:52.977Z,10.30
2022-12-20T19:26:21.053Z,9.40
2022-12-20T19:28:48.104Z,9.90
2022-12-20T19:31:21.967Z,10.50
2022-12-20T19:33:49.606Z,10.60
2022-12-20T19:36:26.562Z,10.13
2022-12-20T19:38:56.173Z,10.90
2022-12-20T19:41:24.798Z,10.57
2022-12-20T19:43:52.092Z,12.23
2022-12-20T19:46:27.965Z,11.97
2022-12-20T19:48:56.038Z,12.43
2022-12-20T19:51:22.916Z,12.23
2022-12-20T19:53:51.608Z,12.37
2022-12-20T19:56:21.411Z,12.33
2022-12-20T19:58:48.246Z,12.50
2022-12-20T20:01:15.912Z,12.17
2022-12-20T20:03:42.714Z,12.97
2022-12-20T20:06:09.816Z,13.07
2022-12-20T20:08:36.592Z,14.13
2022-12-20T20:11:09.410Z,12.67
2022-12-20T20:13:37.051Z,12.07
2022-12-20T20:16:04.638Z,13.93
2022-12-20T20:18:34.651Z,12.63
2022-12-20T20:21:13.625Z,19.23
2022-12-20T20:23:40.449Z,15.67
2022-12-20T20:26:10.062Z,12.63
2022-12-20T20:28:45.178Z,13.13
2022-12-20T20:31:17.085Z,17.57
2022-12-20T20:33:44.446Z,15.40
2022-12-20T20:36:14.613Z,11.93
2022-12-20T20:38:41.591Z,12.87
2022-12-20T20:41:08.539Z,12.80
2022-12-20T20:43:38.062Z,13.43
2022-12-20T20:46:06.888Z,13.17
2022-12-20T20:48:34.500Z,13.17
2022-12-20T20:51:01.173Z,12.97
2022-12-20T20:53:32.979Z,13.20
2022-12-20T20:55:59.872Z,13.60
2022-12-20T20:58:26.831Z,13.93
2022-12-20T21:00:58.777Z,13.80
2022-12-20T21:03:27.046Z,14.07
2022-12-20T21:06:33.078Z,14.47
2022-12-20T21:08:40.497Z,13.57
2022-12-20T21:11:08.199Z,14.50
2022-12-20T21:13:35.153Z,13.83
2022-12-20T21:16:20.160Z,14.30
2022-12-20T21:18:51.263Z,14.30
2022-12-20T21:21:18.169Z,13.90
2022-12-20T21:23:46.328Z,14.33
2022-12-20T21:26:14.242Z,14.07
2022-12-20T21:28:41.926Z,14.33
2022-12-20T21:31:11.258Z,14.10
2022-12-20T21:33:38.713Z,14.00
2022-12-20T21:36:08.567Z,13.53
2022-12-20T21:38:35.285Z,14.37
2022-12-20T21:41:03.797Z,13.57
2022-12-20T21:43:30.544Z,14.07
2022-12-20T21:45:57.620Z,14.77
2022-12-20T21:48:25.559Z,14.40
2022-12-20T21:51:00.420Z,13.90
2022-12-20T21:53:27.732Z,13.77
2022-12-20T21:55:59.046Z,13.87
2022-12-20T21:58:27.476Z,13.27
2022-12-20T22:00:55.670Z,12.67
2022-12-20T22:03:23.978Z,13.83
2022-12-20T22:05:53.172Z,13.63
2022-12-20T22:08:21.032Z,12.37
2022-12-20T22:10:49.674Z,13.43
2022-12-20T22:13:16.453Z,13.40
2022-12-20T22:15:43.173Z,12.70
2022-12-20T22:18:09.930Z,13.20
2022-12-20T22:20:36.612Z,12.77
2022-12-20T22:23:03.367Z,13.23
2022-12-20T22:25:30.057Z,12.90
2022-12-20T22:27:56.647Z,12.77
2022-12-20T22:30:23.274Z,11.87
2022-12-20T22:32:49.910Z,11.80
2022-12-20T22:35:22.571Z,12.70
2022-12-20T22:37:50.411Z,12.17
2022-12-20T22:40:17.397Z,11.97
2022-12-20T22:42:44.335Z,11.23
2022-12-20T22:45:11.344Z,10.97
2022-12-20T22:47:39.740Z,11.97
2022-12-20T22:50:07.038Z,12.03
2022-12-20T22:52:34.395Z,11.37
2022-12-20T22:55:01.029Z,11.57
2022-12-20T22:57:27.724Z,12.57
2022-12-20T22:59:58.543Z,12.20
2022-12-20T23:02:26.472Z,11.50
2022-12-20T23:04:53.573Z,10.40
2022-12-20T23:07:21.444Z,12.27
2022-12-20T23:09:48.655Z,11.20
2022-12-20T23:12:34.186Z,11.87
2022-12-20T23:15:19.773Z,11.70
2022-12-20T23:17:46.449Z,11.33
2022-12-20T23:20:31.731Z,10.93
2022-12-20T23:22:58.317Z,11.50
2022-12-20T23:25:25.541Z,11.93
2022-12-20T23:27:52.472Z,11.60
2022-12-20T23:30:22.068Z,11.37
2022-12-20T23:32:49.015Z,11.83
2022-12-20T23:35:18.443Z,11.27
2022-12-20T23:37:45.861Z,11.17
2022-12-20T23:40:13.268Z,10.80
2022-12-20T23:42:40.003Z,10.90
2022-12-20T23:45:07.294Z,11.00
2022-12-20T23:47:34.004Z,10.00
2022-12-20T23:50:00.619Z,10.37
2022-12-20T23:52:27.220Z,9.87
2022-12-20T23:54:53.811Z,10.27
2022-12-20T23:57:20.445Z,10.03
2022-12-20T23:59:47.025Z,9.73
